Time;durP1;ratioP1;P1;durP2;ratioP2;P2;SDS_P1;SDS_P2;PMS_P1;PMS_P2;Temp;Humidity;BMP_temperature;BMP_pressure;BME280_temperature;BME280_humidity;BME280_pressure;Samples;Min_cycle;Max_cycle;Signal;HPM_P1;HPM_P2
2021/11/22 00:01:00;;;;;;;3.63;2.20;;;;;;;2.80;69.04;98103.69;4980339;28;20076;-83
2021/11/22 00:03:28;;;;;;;3.58;2.28;;;;;;;2.71;69.08;98079.78;4978684;28;20081;-79
2021/11/22 00:05:54;;;;;;;3.58;2.35;;;;;;;2.82;69.12;98105.41;4965616;28;20042;-82
2021/11/22 00:08:20;;;;;;;3.92;1.95;;;;;;;2.83;68.55;98109.69;4978622;28;20454;-80
2021/11/22 00:10:46;;;;;;;2.88;2.20;;;;;;;2.79;68.60;98100.28;5010229;28;20097;-81
2021/11/22 00:13:12;;;;;;;3.13;2.20;;;;;;;2.94;68.41;98134.47;4996378;28;20046;-80
2021/11/22 00:15:38;;;;;;;2.50;1.95;;;;;;;2.77;68.32;98109.72;4964682;28;20050;-79
2021/11/22 00:18:05;;;;;;;3.17;2.10;;;;;;;2.81;68.62;98121.69;4977778;28;20065;-81
2021/11/22 00:20:31;;;;;;;3.22;2.42;;;;;;;2.83;67.46;98121.66;4982771;28;20511;-80
2021/11/22 00:22:57;;;;;;;4.60;2.83;;;;;;;2.56;68.06;98085.84;4985949;28;20066;-82
2021/11/22 00:25:23;;;;;;;3.50;2.40;;;;;;;2.96;67.85;98136.19;4977698;28;20077;-82
2021/11/22 00:27:50;;;;;;;3.50;2.28;;;;;;;2.82;68.17;98108.00;4962540;28;20065;-78
2021/11/22 00:30:25;;;;;;;3.83;2.63;;;;;;;3.08;67.44;98163.56;4968295;28;20121;-80
2021/11/22 00:33:11;;;;;;;3.30;2.60;;;;;;;2.85;67.76;98130.22;4976832;28;20101;-80
2021/11/22 00:35:55;;;;;;;5.60;2.92;;;;;;;3.04;66.96;98167.00;4982925;28;20041;-81
2021/11/22 00:38:21;;;;;;;4.78;3.10;;;;;;;2.85;67.14;98130.22;4978857;28;20050;-81
2021/11/22 00:40:47;;;;;;;5.22;2.83;;;;;;;2.88;66.76;98158.47;4981485;28;20157;-80
2021/11/22 00:43:13;;;;;;;4.13;2.60;;;;;;;2.71;66.86;98144.00;4995403;28;20073;-81
2021/11/22 00:45:39;;;;;;;4.18;2.72;;;;;;;2.64;67.05;98133.75;4981852;28;20532;-80
2021/11/22 00:48:06;;;;;;;3.80;2.88;;;;;;;2.68;66.87;98148.28;4984541;28;20046;-81
2021/11/22 00:50:34;;;;;;;3.70;2.50;;;;;;;2.88;66.55;98173.91;4978761;28;20101;-79
2021/11/22 00:53:01;;;;;;;2.40;2.10;;;;;;;2.88;67.10;98186.75;4978394;28;20043;-81
2021/11/22 00:55:27;;;;;;;3.65;2.70;;;;;;;2.81;67.08;98183.34;4978437;28;20133;-81
2021/11/22 00:57:56;;;;;;;4.47;2.55;;;;;;;2.90;66.95;98177.31;4979990;28;20050;-82
2021/11/22 01:00:23;;;;;;;3.88;2.38;;;;;;;2.89;66.59;98188.47;4982122;28;20035;-83
2021/11/22 01:02:50;;;;;;;2.95;2.28;;;;;;;2.94;66.82;98186.72;4980308;28;20052;-82
2021/11/22 01:05:16;;;;;;;3.00;2.22;;;;;;;2.73;66.14;98150.84;4982943;28;20053;-80
2021/11/22 01:07:42;;;;;;;2.70;2.17;;;;;;;2.95;66.35;98188.44;5018637;28;20057;-79
2021/11/22 01:10:10;;;;;;;3.75;2.30;;;;;;;2.71;66.46;98150.84;4995326;28;20104;-84
2021/11/22 01:12:36;;;;;;;3.75;2.40;;;;;;;2.79;65.93;98168.78;4981339;28;20046;-82
2021/11/22 01:15:06;;;;;;;4.32;2.22;;;;;;;2.59;65.44;98151.72;4961942;28;20590;-83
2021/11/22 01:17:36;;;;;;;4.07;2.10;;;;;;;2.54;65.66;98146.63;4976748;28;20058;-83
2021/11/22 01:20:04;;;;;;;4.50;2.78;;;;;;;2.55;65.51;98160.28;5008709;28;20125;-81
2021/11/22 01:22:30;;;;;;;2.90;2.00;;;;;;;2.74;65.28;98173.09;4977059;28;20538;-80
2021/11/22 01:24:56;;;;;;;3.00;1.90;;;;;;;2.63;65.21;98173.13;4993595;28;20086;-82
2021/11/22 01:27:22;;;;;;;2.50;1.75;;;;;;;2.66;65.73;98197.09;4986097;28;20070;-82
2021/11/22 01:29:48;;;;;;;2.10;1.50;;;;;;;2.58;65.13;98188.53;4976041;28;20141;-81
2021/11/22 01:32:14;;;;;;;2.10;1.70;;;;;;;2.57;65.09;98176.56;4976086;28;20461;-80
2021/11/22 01:34:40;;;;;;;1.80;1.40;;;;;;;2.60;64.89;98186.81;4975036;28;20046;-83
2021/11/22 01:37:06;;;;;;;2.95;1.50;;;;;;;2.71;64.65;98205.66;4975454;28;20050;-82
2021/11/22 01:39:32;;;;;;;2.58;1.60;;;;;;;2.85;64.79;98222.72;4990633;28;20053;-82
2021/11/22 01:41:58;;;;;;;3.15;1.48;;;;;;;2.67;64.76;98200.50;4980564;28;20137;-80
2021/11/22 01:44:24;;;;;;;1.92;1.33;;;;;;;2.71;64.60;98202.22;4992094;28;20559;-82
2021/11/22 01:46:50;;;;;;;1.65;1.30;;;;;;;2.81;64.21;98226.16;4961059;28;20130;-83
2021/11/22 01:49:18;;;;;;;2.10;1.40;;;;;;;2.74;63.77;98224.47;5011013;28;20039;-81
2021/11/22 01:51:45;;;;;;;1.73;1.20;;;;;;;2.80;63.71;98235.59;4965573;28;20051;-82
2021/11/22 01:54:16;;;;;;;2.00;1.40;;;;;;;2.33;63.73;98180.88;4979850;28;20046;-82
2021/11/22 01:56:49;;;;;;;1.85;1.30;;;;;;;2.66;63.71;98217.63;4978852;28;20047;-80
2021/11/22 01:59:16;;;;;;;2.08;1.40;;;;;;;2.65;63.67;98202.25;4962520;28;20042;-84
2021/11/22 02:01:45;;;;;;;1.38;1.10;;;;;;;2.66;63.22;98193.66;5011945;28;20038;-82
2021/11/22 02:04:11;;;;;;;1.80;1.40;;;;;;;2.75;62.84;98223.63;4948944;28;20508;-80
2021/11/22 02:06:37;;;;;;;1.42;1.17;;;;;;;2.84;63.26;98242.44;4979337;28;20065;-80
2021/11/22 02:09:04;;;;;;;2.17;1.40;;;;;;;2.89;62.81;98247.56;4979021;28;20046;-81
2021/11/22 02:11:31;;;;;;;2.65;1.48;;;;;;;2.89;62.72;98232.13;4978218;28;20035;-81
2021/11/22 02:13:58;;;;;;;1.55;1.25;;;;;;;2.76;62.77;98217.63;5013710;28;20399;-82
2021/11/22 02:16:24;;;;;;;1.80;1.40;;;;;;;2.86;62.66;98227.88;5002662;28;20053;-80
2021/11/22 02:18:50;;;;;;;2.35;1.70;;;;;;;3.04;62.77;98244.09;4983870;28;20141;-83
2021/11/22 02:21:16;;;;;;;3.10;2.10;;;;;;;2.97;62.16;98235.56;5011212;28;20098;-83
2021/11/22 02:23:51;;;;;;;3.17;2.22;;;;;;;2.54;62.20;98186.84;5011479;28;20047;-81
2021/11/22 02:26:19;;;;;;;4.05;2.33;;;;;;;2.24;62.34;98155.25;4980685;28;20042;-81
2021/11/22 02:28:46;;;;;;;4.13;1.90;;;;;;;2.44;62.42;98190.28;4983141;28;20393;-83
2021/11/22 02:31:12;;;;;;;3.47;2.13;;;;;;;2.71;62.55;98244.19;5003702;28;20034;-83
2021/11/22 02:33:38;;;;;;;3.17;2.05;;;;;;;2.18;62.46;98160.38;4966030;28;20102;-84
2021/11/22 02:36:04;;;;;;;2.70;1.70;;;;;;;2.89;62.66;98272.38;4962874;28;20042;-83
2021/11/22 02:38:37;;;;;;;2.55;1.90;;;;;;;2.73;62.21;98238.19;4994095;28;20073;-82
2021/11/22 02:41:05;;;;;;;2.75;1.80;;;;;;;2.45;62.76;98182.56;4993728;28;20039;-83
2021/11/22 02:43:36;;;;;;;3.63;1.75;;;;;;;2.62;62.33;98200.53;4977842;28;20042;-81
2021/11/22 02:46:03;;;;;;;3.40;2.05;;;;;;;2.98;62.70;98264.66;4977803;28;20050;-81
2021/11/22 02:48:29;;;;;;;2.97;2.08;;;;;;;3.11;61.97;98279.19;4979623;28;20054;-82
2021/11/22 02:50:55;;;;;;;3.13;2.00;;;;;;;3.08;61.79;98286.06;4980767;28;20046;-80
2021/11/22 02:53:24;;;;;;;3.65;2.30;;;;;;;2.81;62.31;98256.97;4980369;28;20046;-81
2021/11/22 02:55:51;;;;;;;2.20;1.75;;;;;;;2.32;61.63;98184.31;4977886;28;20049;-84
2021/11/22 02:58:21;;;;;;;5.22;1.90;;;;;;;2.93;62.45;98287.81;4979419;28;20046;-81
2021/11/22 03:00:50;;;;;;;2.17;1.65;;;;;;;1.84;62.13;98116.81;4995844;28;20165;-81
2021/11/22 03:03:16;;;;;;;2.15;1.40;;;;;;;2.22;62.04;98180.91;4980882;28;20073;-81
2021/11/22 03:05:42;;;;;;;3.28;1.73;;;;;;;2.94;62.11;98291.22;4983795;28;20061;-79
2021/11/22 03:08:08;;;;;;;2.25;1.60;;;;;;;2.77;62.13;98283.53;4965525;28;20038;-83
2021/11/22 03:10:34;;;;;;;2.28;1.80;;;;;;;2.28;62.44;98212.56;4980777;28;20110;-83
2021/11/22 03:13:00;;;;;;;2.47;1.65;;;;;;;2.68;62.69;98281.84;4970071;28;20057;-83
2021/11/22 03:15:27;;;;;;;1.60;1.23;;;;;;;2.68;62.52;98281.84;4982820;28;20519;-84
2021/11/22 03:17:54;;;;;;;2.28;1.52;;;;;;;2.63;62.43;98279.28;4982543;28;20046;-86
2021/11/22 03:20:21;;;;;;;2.28;1.70;;;;;;;2.30;62.47;98239.97;4969174;28;20039;-85
2021/11/22 03:22:50;;;;;;;1.95;1.30;;;;;;;2.77;62.08;98325.50;4987537;28;20030;-81
2021/11/22 03:25:17;;;;;;;1.65;1.30;;;;;;;2.64;62.18;98298.97;5007747;28;20042;-84
2021/11/22 03:27:47;;;;;;;2.00;1.40;;;;;;;2.11;62.49;98229.66;4964763;28;20096;-86
2021/11/22 03:30:14;;;;;;;1.73;1.35;;;;;;;2.71;62.13;98328.06;4993967;28;20593;-82
2021/11/22 03:32:40;;;;;;;2.00;1.20;;;;;;;2.67;62.06;98319.53;4951788;28;20049;-82
2021/11/22 03:35:07;;;;;;;2.30;1.42;;;;;;;2.41;62.21;98279.31;4978830;28;20486;-83
2021/11/22 03:37:33;;;;;;;1.70;1.13;;;;;;;1.88;62.23;98204.00;4980003;28;20113;-82
2021/11/22 03:40:01;;;;;;;1.70;1.10;;;;;;;2.57;62.31;98325.50;4980125;28;20038;-81
2021/11/22 03:42:36;;;;;;;2.03;1.10;;;;;;;1.44;62.25;98146.69;4982745;28;20110;-85
2021/11/22 03:45:05;;;;;;;1.60;1.02;;;;;;;1.80;62.10;98236.47;4993318;28;20042;-83
2021/11/22 03:47:31;;;;;;;1.55;1.20;;;;;;;1.45;62.05;98170.63;4985082;28;20046;-83
2021/11/22 03:49:57;;;;;;;1.70;1.13;;;;;;;2.47;62.26;98341.78;4988739;28;20042;-81
2021/11/22 03:52:22;;;;;;;1.50;1.02;;;;;;;2.34;62.10;98328.94;4979011;28;20042;-82
2021/11/22 03:54:48;;;;;;;1.20;1.00;;;;;;;2.34;62.23;98312.69;4979506;28;20524;-83
2021/11/22 03:57:14;;;;;;;1.40;1.00;;;;;;;2.52;62.19;98345.22;5012162;28;20069;-83
2021/11/22 03:59:40;;;;;;;3.10;1.17;;;;;;;1.79;61.73;98238.22;4980437;28;20428;-83
2021/11/22 04:02:09;;;;;;;1.58;1.00;;;;;;;1.95;61.73;98269.00;4985289;28;20046;-83
2021/11/22 04:04:35;;;;;;;2.45;1.30;;;;;;;1.71;61.12;98257.00;4959191;28;20047;-82
2021/11/22 04:07:01;;;;;;;1.65;1.20;;;;;;;1.59;61.60;98266.38;4984027;28;20038;-85
2021/11/22 04:09:27;;;;;;;1.33;1.08;;;;;;;1.49;61.66;98265.47;4963752;28;20041;-84
2021/11/22 04:11:53;;;;;;;2.22;1.48;;;;;;;1.78;60.82;98333.09;4999886;28;20042;-81
2021/11/22 04:14:19;;;;;;;1.52;1.25;;;;;;;1.38;61.30;98287.69;4974736;28;20065;-80
2021/11/22 04:16:45;;;;;;;1.98;1.27;;;;;;;1.88;61.03;98386.16;4968680;28;20042;-83
2021/11/22 04:19:10;;;;;;;2.00;1.30;;;;;;;1.33;61.32;98304.72;4991360;28;20042;-85
2021/11/22 04:21:38;;;;;;;1.88;1.08;;;;;;;1.59;61.87;98327.06;4997228;28;20053;-84
2021/11/22 04:24:04;;;;;;;1.75;1.17;;;;;;;1.71;61.84;98336.50;4999729;28;20048;-81
2021/11/22 04:26:31;;;;;;;2.00;1.15;;;;;;;2.18;61.22;98410.22;4968556;28;20061;-82
2021/11/22 04:28:58;;;;;;;2.20;1.13;;;;;;;1.58;61.59;98300.56;4986543;28;20046;-82
2021/11/22 04:31:26;;;;;;;1.95;1.20;;;;;;;1.54;60.86;98291.16;4999171;28;20620;-85
2021/11/22 04:33:52;;;;;;;1.95;1.50;;;;;;;2.19;60.64;98416.19;5032524;28;20050;-82
2021/11/22 04:36:17;;;;;;;2.20;1.38;;;;;;;1.63;61.45;98323.66;4997594;28;20035;-82
2021/11/22 04:38:43;;;;;;;2.20;1.50;;;;;;;1.56;60.83;98324.47;4996110;28;20143;-81
2021/11/22 04:41:12;;;;;;;2.88;1.48;;;;;;;1.41;60.75;98303.06;4996897;28;20035;-82
2021/11/22 04:43:40;;;;;;;2.17;1.40;;;;;;;1.84;60.91;98389.56;4995422;28;20083;-81
2021/11/22 04:46:06;;;;;;;1.85;1.23;;;;;;;2.00;60.43;98422.97;4963098;28;20121;-79
2021/11/22 04:48:33;;;;;;;2.55;1.67;;;;;;;2.06;60.87;98449.53;4979494;28;20440;-84
2021/11/22 04:50:59;;;;;;;2.10;1.50;;;;;;;1.39;60.68;98347.47;4995732;28;20070;-83
2021/11/22 04:53:24;;;;;;;2.13;1.40;;;;;;;1.28;60.84;98353.41;5012033;28;20039;-81
2021/11/22 04:55:51;;;;;;;2.35;1.45;;;;;;;1.57;60.94;98380.03;4995676;28;20050;-85
2021/11/22 04:58:17;;;;;;;1.88;1.40;;;;;;;1.50;60.46;98363.78;4997681;28;20019;-80
2021/11/22 05:00:43;;;;;;;1.75;1.50;;;;;;;1.78;60.72;98408.34;4996796;28;20065;-82
2021/11/22 05:03:11;;;;;;;1.65;1.40;;;;;;;2.18;60.85;98478.66;4992930;28;20068;-84
2021/11/22 05:05:37;;;;;;;1.70;1.38;;;;;;;1.89;61.14;98422.91;4983705;28;20037;-85
2021/11/22 05:08:07;;;;;;;2.20;1.63;;;;;;;1.53;60.73;98386.88;4953376;28;20055;-82
2021/11/22 05:10:42;;;;;;;2.30;1.30;;;;;;;1.91;60.89;98436.63;4967770;28;20489;-83
2021/11/22 05:13:11;;;;;;;2.65;1.70;;;;;;;1.87;60.58;98450.31;4981957;28;20045;-81
2021/11/22 05:15:38;;;;;;;2.17;1.75;;;;;;;2.24;60.67;98496.66;4981520;28;20046;-81
2021/11/22 05:18:09;;;;;;;2.28;1.45;;;;;;;1.63;60.74;98398.03;4967303;28;20172;-78
2021/11/22 05:20:37;;;;;;;2.38;1.48;;;;;;;2.23;60.62;98505.19;4980466;28;20167;-79
2021/11/22 05:23:04;;;;;;;2.40;1.50;;;;;;;2.28;60.69;98513.78;4980644;28;20197;-81
2021/11/22 05:25:30;;;;;;;1.63;1.30;;;;;;;2.27;60.80;98530.03;4981511;28;21541;-82
2021/11/22 05:27:57;;;;;;;2.92;1.63;;;;;;;2.05;60.83;98506.84;4982763;28;20050;-82
2021/11/22 05:30:27;;;;;;;1.67;1.25;;;;;;;2.16;60.57;98532.56;4965634;28;20039;-83
2021/11/22 05:32:55;;;;;;;1.70;1.38;;;;;;;2.23;60.72;98546.25;4965258;28;20584;-84
2021/11/22 05:35:22;;;;;;;4.97;1.00;;;;;;;1.99;60.92;98517.06;4982977;28;20129;-82
2021/11/22 05:37:48;;;;;;;3.13;1.10;;;;;;;2.18;60.61;98550.50;4983237;28;20065;-80
2021/11/22 05:40:14;;;;;;;3.25;1.20;;;;;;;1.80;60.59;98488.75;4982721;28;20061;-80
2021/11/22 05:42:41;;;;;;;1.48;1.10;;;;;;;2.06;60.20;98538.47;4974889;28;20042;-84
2021/11/22 05:45:17;;;;;;;1.33;0.98;;;;;;;2.13;60.08;98577.84;4999127;28;20427;-82
2021/11/22 05:47:48;;;;;;;1.33;0.98;;;;;;;1.18;60.29;98428.53;4995661;28;20077;-83
2021/11/22 05:50:19;;;;;;;1.30;1.10;;;;;;;1.47;60.22;98477.41;4985625;28;20034;-82
2021/11/22 05:52:51;;;;;;;1.50;1.15;;;;;;;1.03;59.73;98426.69;4972348;28;20417;-81
2021/11/22 05:58:20;;;;;;;1.33;1.10;;;;;;;1.68;59.91;98501.47;4961733;28;20058;-79
2021/11/22 06:00:50;;;;;;;5.60;1.50;;;;;;;2.50;60.18;98598.59;4996201;28;20043;-83
2021/11/22 06:03:17;;;;;;;1.42;1.05;;;;;;;2.63;60.07;98448.81;5122608;23;20052;-83
2021/11/22 06:05:53;;;;;;;1.63;1.30;;;;;;;3.44;59.09;98528.53;4949022;29;20035;-80
2021/11/22 06:08:22;;;;;;;1.33;1.17;;;;;;;3.09;58.24;98462.56;4961147;28;21182;-79
2021/11/22 06:10:49;;;;;;;1.33;1.10;;;;;;;2.78;58.19;98460.81;4945856;29;20020;-80
2021/11/22 06:13:20;;;;;;;1.45;0.90;;;;;;;3.25;57.44;98589.41;4938458;29;20031;-82
2021/11/22 06:15:48;;;;;;;1.20;1.10;;;;;;;2.54;57.17;98503.59;4937426;28;20138;-82
2021/11/22 06:18:18;;;;;;;1.13;0.88;;;;;;;2.67;57.96;98525.03;4937242;29;20501;-82
2021/11/22 06:20:45;;;;;;;1.10;1.00;;;;;;;3.66;57.66;98582.53;4943588;29;20040;-84
2021/11/22 06:23:11;;;;;;;1.55;0.88;;;;;;;4.80;58.11;98535.84;4970603;23;20054;-81
2021/11/22 06:25:37;;;;;;;1.13;0.90;;;;;;;6.53;56.21;98612.72;5026411;23;20423;-83
2021/11/22 06:28:04;;;;;;;0.90;0.80;;;;;;;6.52;55.39;98629.09;4994148;28;20050;-80
2021/11/22 06:30:30;;;;;;;1.08;0.98;;;;;;;7.13;55.55;98620.59;4995678;28;21428;-79
2021/11/22 06:32:57;;;;;;;0.98;0.88;;;;;;;8.52;54.91;98594.16;5031789;23;20055;-79
2021/11/22 06:35:24;;;;;;;1.30;1.10;;;;;;;9.18;52.27;98581.53;4963466;28;20058;-84
2021/11/22 06:37:54;;;;;;;1.38;1.20;;;;;;;8.77;50.66;98570.31;4944458;28;21491;-83
2021/11/22 06:40:24;;;;;;;1.50;1.27;;;;;;;7.30;50.22;98498.75;4958742;28;20498;-81
2021/11/22 06:42:59;;;;;;;2.75;1.23;;;;;;;7.13;49.94;98659.41;4949406;28;20035;-82
2021/11/22 06:45:27;;;;;;;1.35;1.00;;;;;;;6.00;49.91;98604.66;4953376;28;20078;-81
2021/11/22 06:47:54;;;;;;;3.13;1.30;;;;;;;5.97;50.51;98693.31;4960477;28;20035;-82
2021/11/22 06:50:23;;;;;;;2.03;1.23;;;;;;;5.29;50.59;98667.94;4951678;28;20043;-83
2021/11/22 06:52:49;;;;;;;1.83;1.10;;;;;;;4.89;50.53;98696.50;4973540;28;20090;-81
2021/11/22 06:55:16;;;;;;;2.40;1.17;;;;;;;4.58;51.23;98719.78;4950446;28;20066;-81
2021/11/22 06:57:42;;;;;;;5.72;3.00;;;;;;;3.89;51.28;98652.88;4945954;28;20393;-80
2021/11/22 07:00:11;;;;;;;3.60;1.10;;;;;;;3.99;52.36;98694.06;4964876;28;20039;-82
2021/11/22 07:02:38;;;;;;;1.55;1.30;;;;;;;3.71;52.48;98688.91;4963167;28;20054;-81
2021/11/22 07:05:05;;;;;;;3.72;1.50;;;;;;;3.90;53.22;98746.41;4952103;28;20042;-79
2021/11/22 07:07:31;;;;;;;2.53;1.30;;;;;;;3.79;53.36;98760.97;4962129;28;20177;-80
2021/11/22 07:09:57;;;;;;;1.23;1.05;;;;;;;3.65;53.69;98776.34;4963251;28;20035;-80
2021/11/22 07:12:23;;;;;;;1.77;1.27;;;;;;;3.54;53.28;98774.63;4965232;28;20047;-82
2021/11/22 07:14:49;;;;;;;1.83;1.50;;;;;;;3.61;54.51;98785.78;4945555;28;20092;-77
2021/11/22 07:17:15;;;;;;;2.33;1.27;;;;;;;3.35;53.59;98773.69;4977996;28;20067;-83
2021/11/22 07:19:42;;;;;;;2.65;1.60;;;;;;;3.09;53.71;98745.31;4950777;28;20047;-83
2021/11/22 07:22:09;;;;;;;2.30;1.33;;;;;;;2.56;54.69;98681.69;4953464;28;20063;-85
2021/11/22 07:24:41;;;;;;;1.27;1.05;;;;;;;2.85;54.41;98746.91;4953377;28;20126;-81
2021/11/22 07:27:09;;;;;;;2.15;1.10;;;;;;;3.30;54.64;98824.28;4952839;28;20043;-81
2021/11/22 07:29:36;;;;;;;2.33;0.85;;;;;;;2.66;53.71;98726.25;4962793;28;20508;-80
2021/11/22 07:32:03;;;;;;;1.65;0.90;;;;;;;3.38;55.21;98724.00;4951159;28;20715;-82
2021/11/22 07:34:29;;;;;;;1.20;0.90;;;;;;;4.79;54.29;98801.34;4949293;28;20042;-79
2021/11/22 07:36:55;;;;;;;0.85;0.70;;;;;;;6.45;53.53;98769.59;4947344;28;20086;-83
2021/11/22 07:39:22;;;;;;;1.02;0.80;;;;;;;7.56;51.60;98795.19;4943915;28;20054;-79
2021/11/22 07:41:51;;;;;;;2.35;0.57;;;;;;;8.90;51.25;98730.03;4947525;28;20043;-84
2021/11/22 07:44:20;;;;;;;1.83;0.65;;;;;;;11.19;49.59;98795.84;4947900;28;20074;-83
2021/11/22 07:46:46;;;;;;;0.93;0.82;;;;;;;12.58;47.06;98762.16;4956235;28;20535;-82
2021/11/22 07:49:12;;;;;;;0.73;0.70;;;;;;;13.78;46.10;98771.84;4938974;28;20133;-82
2021/11/22 07:51:45;;;;;;;0.82;0.63;;;;;;;13.07;41.39;98778.72;4943440;28;20040;-80
2021/11/22 07:54:15;;;;;;;1.67;1.00;;;;;;;11.38;39.66;98835.28;4973044;28;20134;-82
2021/11/22 07:56:43;;;;;;;1.55;0.82;;;;;;;8.99;40.61;98688.31;4980281;28;20023;-81
2021/11/22 07:59:11;;;;;;;2.15;0.85;;;;;;;8.64;40.09;98790.16;4977687;28;20102;-81
2021/11/22 08:02:30;;;;;;;1.35;0.88;;;;;;;8.79;40.29;98864.25;4951557;28;20102;-82
2021/11/22 08:05:17;;;;;;;0.80;0.70;;;;;;;7.09;39.52;98728.44;4935158;28;20038;-83
2021/11/22 08:07:46;;;;;;;1.80;0.88;;;;;;;7.46;40.30;98893.66;4967294;28;20043;-81
2021/11/22 08:10:23;;;;;;;1.83;1.05;;;;;;;6.02;41.35;98753.56;4993251;28;20067;-80
2021/11/22 08:12:51;;;;;;;3.75;2.40;;;;;;;6.48;40.78;98912.59;4952559;28;20047;-81
2021/11/22 08:15:17;;;;;;;1.33;1.02;;;;;;;5.96;41.66;98892.19;4966538;28;20047;-79
2021/11/22 08:17:49;;;;;;;2.40;1.20;;;;;;;5.54;42.42;98895.75;4953502;28;20106;-81
2021/11/22 08:20:17;;;;;;;2.85;0.88;;;;;;;5.46;42.41;98881.16;4950505;28;20548;-81
2021/11/22 08:22:45;;;;;;;3.50;1.15;;;;;;;6.66;43.54;98917.66;4935200;28;20075;-80
2021/11/22 08:25:13;;;;;;;4.28;1.23;;;;;;;6.87;41.82;98877.81;4949920;28;20554;-82
2021/11/22 08:27:40;;;;;;;3.38;1.35;;;;;;;6.65;40.83;98913.34;4948017;28;20067;-81
2021/11/22 08:30:13;;;;;;;2.38;1.35;;;;;;;5.70;41.85;98828.59;4970224;28;20567;-80
2021/11/22 08:32:42;;;;;;;3.70;1.10;;;;;;;5.82;42.29;98930.97;4962308;28;20047;-81
2021/11/22 08:35:09;;;;;;;2.90;1.13;;;;;;;5.33;42.03;98929.34;4971009;28;20061;-79
2021/11/22 08:37:38;;;;;;;3.25;1.10;;;;;;;4.48;42.73;98838.31;4953938;28;20070;-81
2021/11/22 08:40:07;;;;;;;1.17;1.02;;;;;;;4.86;43.66;98934.53;4949235;28;20047;-79
2021/11/22 08:42:33;;;;;;;1.45;1.00;;;;;;;4.54;42.99;98935.38;4957817;28;20047;-80
2021/11/22 08:45:00;;;;;;;2.03;1.00;;;;;;;4.51;42.85;98938.81;4952787;28;20044;-81
2021/11/22 08:47:27;;;;;;;1.77;1.17;;;;;;;4.12;43.73;98940.41;4951361;28;20086;-81
2021/11/22 08:49:53;;;;;;;1.13;0.88;;;;;;;3.63;43.45;98922.19;4936167;28;20049;-82
2021/11/22 08:52:19;;;;;;;2.22;1.02;;;;;;;3.88;44.52;98966.91;4948297;28;20138;-81
2021/11/22 08:54:45;;;;;;;2.03;1.42;;;;;;;3.67;44.39;98947.94;4933137;28;20085;-80
2021/11/22 08:57:12;;;;;;;2.75;1.25;;;;;;;3.76;44.34;98950.53;4962810;28;20050;-80
2021/11/22 08:59:39;;;;;;;4.60;1.27;;;;;;;3.75;44.91;98956.53;4951947;28;20074;-79
2021/11/22 09:02:05;;;;;;;3.03;1.20;;;;;;;3.97;44.61;98972.13;4952041;28;20086;-79
2021/11/22 09:04:31;;;;;;;1.48;0.95;;;;;;;3.34;44.59;98884.28;4961426;28;20046;-81
2021/11/22 09:06:57;;;;;;;2.13;1.40;;;;;;;3.74;44.84;98957.41;4974359;28;20131;-79
2021/11/22 09:09:24;;;;;;;2.03;1.08;;;;;;;3.76;44.46;98980.56;4959397;28;20054;-81
2021/11/22 09:11:50;;;;;;;1.83;1.17;;;;;;;3.49;44.91;98943.53;4945995;28;20510;-80
2021/11/22 09:14:16;;;;;;;3.08;0.90;;;;;;;3.70;44.82;98995.97;4961878;28;20095;-80
2021/11/22 09:16:42;;;;;;;1.88;0.90;;;;;;;3.83;44.25;98996.91;4958527;28;20051;-81
2021/11/22 09:19:08;;;;;;;1.45;0.70;;;;;;;3.52;45.30;98945.28;4987324;28;20115;-83
2021/11/22 09:21:36;;;;;;;2.10;1.25;;;;;;;3.79;45.03;98998.59;4972705;28;20099;-83
2021/11/22 09:24:06;;;;;;;1.40;0.80;;;;;;;2.85;44.19;98867.69;4957574;28;20050;-81
2021/11/22 09:26:32;;;;;;;3.00;1.15;;;;;;;3.37;44.80;99000.88;4986499;28;20057;-82
2021/11/22 09:28:59;;;;;;;1.48;1.00;;;;;;;3.30;44.77;99010.28;4967119;28;20047;-80
2021/11/22 09:31:27;;;;;;;1.98;1.08;;;;;;;2.99;44.43;98973.16;4966359;28;20043;-80
2021/11/22 09:33:54;;;;;;;2.95;1.30;;;;;;;2.57;45.33;98944.50;4950477;28;20074;-82
2021/11/22 09:36:21;;;;;;;3.83;1.30;;;;;;;2.40;45.09;98937.50;4953954;28;20089;-80
2021/11/22 09:38:48;;;;;;;4.47;0.80;;;;;;;2.81;45.60;99022.69;4989136;28;20094;-81
2021/11/22 09:41:15;;;;;;;1.08;0.70;;;;;;;2.70;45.25;99015.75;4973996;28;20047;-79
2021/11/22 09:43:43;;;;;;;1.50;0.77;;;;;;;2.55;45.74;98970.19;4958824;28;20425;-81
2021/11/22 09:46:10;;;;;;;1.50;1.00;;;;;;;2.96;46.02;99024.53;4973049;28;20063;-81
2021/11/22 09:48:45;;;;;;;0.90;0.60;;;;;;;2.93;44.97;99019.38;4970359;28;20040;-83
2021/11/22 09:51:11;;;;;;;0.98;0.70;;;;;;;2.48;45.59;98960.69;4968791;28;20102;-82
2021/11/22 09:53:40;;;;;;;1.17;0.88;;;;;;;2.69;45.63;99014.00;4953509;28;20544;-81
2021/11/22 09:56:11;;;;;;;1.15;0.70;;;;;;;2.90;45.88;99042.47;4951965;28;20050;-83
2021/11/22 09:58:38;;;;;;;3.17;0.77;;;;;;;2.95;45.33;99036.56;4956601;28;20513;-82
2021/11/22 10:01:15;;;;;;;2.40;0.80;;;;;;;2.98;44.49;99033.97;4952877;28;20405;-83
2021/11/22 10:03:56;;;;;;;1.70;0.85;;;;;;;2.97;44.76;99023.69;4954974;28;20425;-84
2021/11/22 10:06:23;;;;;;;1.52;0.85;;;;;;;2.45;44.67;98911.88;4956945;28;20039;-81
2021/11/22 10:09:02;;;;;;;0.82;0.73;;;;;;;2.80;44.16;98934.47;4952599;28;20128;-81
2021/11/22 10:11:52;;;;;;;1.17;0.75;;;;;;;3.02;43.34;98996.34;4959954;28;20138;-82
2021/11/22 10:14:26;;;;;;;1.55;0.88;;;;;;;3.14;44.04;99019.56;4972536;28;20197;-81
2021/11/22 10:16:51;;;;;;;2.58;0.80;;;;;;;3.35;44.40;99079.75;4967712;28;20043;-81
2021/11/22 10:19:19;;;;;;;3.97;0.90;;;;;;;3.26;43.92;99059.09;4980793;28;20069;-81
2021/11/22 10:21:46;;;;;;;2.13;0.73;;;;;;;2.75;43.83;99014.94;4987238;28;20047;-80
2021/11/22 10:24:13;;;;;;;0.95;0.68;;;;;;;2.86;43.71;99050.19;4965344;28;20047;-81
2021/11/22 10:26:45;;;;;;;2.40;0.65;;;;;;;2.14;43.98;98970.59;4984227;28;20478;-79
2021/11/22 10:29:29;;;;;;;2.10;0.70;;;;;;;2.54;44.05;99066.06;4951169;28;21127;-79
2021/11/22 10:31:57;;;;;;;1.10;0.90;;;;;;;2.49;44.07;99090.00;4991265;28;20039;-80
2021/11/22 10:34:23;;;;;;;0.85;0.70;;;;;;;2.26;44.10;99077.72;4953663;28;20043;-82
2021/11/22 10:36:58;;;;;;;1.13;0.70;;;;;;;2.37;44.69;99108.66;4956087;28;20065;-79
2021/11/22 10:39:27;;;;;;;1.02;0.65;;;;;;;1.87;44.63;99042.97;4955331;28;20047;-80
2021/11/22 10:41:52;;;;;;;0.82;0.70;;;;;;;2.12;44.51;99098.06;4949935;28;20129;-84
2021/11/22 10:44:28;;;;;;;0.60;0.60;;;;;;;1.93;44.57;99084.09;4965359;28;21659;-82
2021/11/22 10:46:58;;;;;;;1.27;0.90;;;;;;;1.48;44.98;99009.06;4933267;28;20036;-82
2021/11/22 10:49:40;;;;;;;0.95;0.60;;;;;;;2.09;45.04;99128.81;4939068;28;20368;-79
2021/11/22 10:52:12;;;;;;;0.95;0.70;;;;;;;1.82;45.17;99108.75;4939284;28;20035;-84
2021/11/22 10:54:54;;;;;;;;;;;;;;;2.00;45.44;99152.66;4956390;28;20098;-82
2021/11/22 10:57:20;;;;;;;2.20;0.93;;;;;;;1.84;44.95;99133.56;4939443;28;19985;-83
2021/11/22 10:59:46;;;;;;;1.63;0.80;;;;;;;1.75;44.97;99141.16;4953056;28;20050;-81
2021/11/22 11:02:12;;;;;;;2.83;0.77;;;;;;;1.75;45.39;99159.09;4953406;28;20050;-82
2021/11/22 11:04:44;;;;;;;1.85;0.68;;;;;;;1.54;45.77;99122.00;4956081;28;20065;-83
2021/11/22 11:07:11;;;;;;;1.58;0.80;;;;;;;1.87;45.46;99171.25;4940193;28;20061;-83
2021/11/22 11:09:52;;;;;;;3.25;1.15;;;;;;;1.15;45.44;99053.78;4950952;28;20094;-82
2021/11/22 11:12:24;;;;;;;3.30;0.90;;;;;;;2.00;45.00;99180.00;4955286;28;20059;-85
2021/11/22 11:14:52;;;;;;;2.95;1.05;;;;;;;1.47;45.23;99090.22;4951913;28;20047;-81
2021/11/22 11:17:30;;;;;;;3.25;0.93;;;;;;;1.96;45.57;99191.94;4947040;28;20089;-83
2021/11/22 11:19:57;;;;;;;4.60;1.00;;;;;;;1.85;45.33;99155.81;4955664;28;20046;-82
2021/11/22 11:22:26;;;;;;;4.07;1.20;;;;;;;1.68;45.48;99140.16;5008081;28;20045;-79
2021/11/22 11:24:57;;;;;;;2.38;1.00;;;;;;;1.08;45.32;99036.63;4971205;28;20047;-81
2021/11/22 11:27:24;;;;;;;4.13;0.90;;;;;;;1.96;45.22;99184.22;4965424;28;20127;-80
2021/11/22 11:29:55;;;;;;;1.60;0.90;;;;;;;1.28;46.14;99078.81;4983067;28;20370;-80
2021/11/22 11:32:21;;;;;;;0.98;0.75;;;;;;;1.84;45.01;99189.19;4965083;28;20085;-81
2021/11/22 11:34:51;;;;;;;5.72;0.90;;;;;;;1.37;45.40;99118.25;4964301;28;20070;-81
2021/11/22 11:37:36;;;;;;;5.15;1.25;;;;;;;1.79;45.53;99210.47;4980561;28;20067;-82
2021/11/22 11:40:17;;;;;;;1.60;0.93;;;;;;;1.67;45.34;99217.94;4964943;28;20058;-81
2021/11/22 11:43:20;;;;;;;2.42;0.80;;;;;;;1.62;45.31;99232.41;4960321;28;20051;-80
2021/11/22 11:46:14;;;;;;;1.67;0.98;;;;;;;1.56;45.62;99235.69;4958310;28;20604;-81
2021/11/22 11:49:00;;;;;;;4.15;0.95;;;;;;;1.50;45.40;99230.47;4957344;28;20039;-80
2021/11/22 11:51:40;;;;;;;3.15;1.10;;;;;;;1.48;45.49;99237.28;4955907;28;20521;-80